Dana, Kentucky
Current Conditions -  °F | °C
As of 4:15 AM on Friday 19 Dec 2014 (Local Time) from KPBX Reporting Station
Overcast Overcast  
Wind Chill: 29°   Ceiling: 1500
Heat Index: 29°   Visibility: 10mi
Dew Point: 25°   Wind: 3mph
Humidity: 85%   Direction: 350°N
Pressure: 30.18"   Gusts: NA
Location:  37.56°N, 82.69°W
Report Text: KPBX 190915Z AUTO 35003KT 10SM OVC015 M01/M04 A3018 RMK AO2 T10151038
Loading
Personal Weather Stations






























Interactive Weather Map New forecast layout! Learn more

10-Day Weather Forecast

Advertisements
Track Severe Weather on mobile